createdAt,value
2018-12-15T00:02:07.561Z,10.23
2018-12-15T00:04:35.045Z,9.70
2018-12-15T00:07:02.693Z,8.30
2018-12-15T00:09:31.117Z,9.23
2018-12-15T00:11:58.628Z,10.23
2018-12-15T00:14:26.217Z,10.07
2018-12-15T00:16:54.833Z,9.00
2018-12-15T00:19:23.125Z,9.10
2018-12-15T00:21:50.603Z,9.27
2018-12-15T00:24:18.126Z,8.70
2018-12-15T00:26:46.468Z,9.87
2018-12-15T00:29:15.177Z,10.07
2018-12-15T00:31:43.370Z,9.00
2018-12-15T00:34:12.054Z,7.90
2018-12-15T00:36:39.567Z,8.50
2018-12-15T00:39:07.932Z,8.80
2018-12-15T00:41:36.218Z,9.70
2018-12-15T00:44:05.285Z,10.23
2018-12-15T00:46:32.924Z,9.07
2018-12-15T00:49:00.560Z,9.50
2018-12-15T00:51:28.628Z,9.50
2018-12-15T00:53:57.005Z,8.97
2018-12-15T00:56:25.897Z,8.77
2018-12-15T00:58:54.015Z,8.73
2018-12-15T01:01:22.658Z,8.33
2018-12-15T01:03:50.197Z,8.23
2018-12-15T01:06:19.029Z,11.40
2018-12-15T01:08:47.510Z,12.40
2018-12-15T01:11:14.995Z,11.10
2018-12-15T01:13:42.574Z,10.30
2018-12-15T01:16:10.802Z,10.10
2018-12-15T01:18:38.843Z,10.43
2018-12-15T01:21:06.345Z,10.97
2018-12-15T01:23:34.133Z,9.07
2018-12-15T01:26:01.602Z,9.33
2018-12-15T01:28:29.413Z,9.80
2018-12-15T01:30:56.893Z,10.60
2018-12-15T01:33:24.395Z,11.40
2018-12-15T01:35:52.562Z,10.37
2018-12-15T01:38:20.830Z,9.50
2018-12-15T01:40:50.450Z,10.33
2018-12-15T01:43:18.294Z,9.03
2018-12-15T01:45:46.426Z,9.27
2018-12-15T01:48:13.939Z,9.63
2018-12-15T01:50:42.140Z,9.17
2018-12-15T01:53:10.230Z,11.50
2018-12-15T01:55:37.746Z,10.70
2018-12-15T01:58:05.856Z,11.77
2018-12-15T02:00:33.328Z,10.30
2018-12-15T02:03:01.900Z,9.83
2018-12-15T02:05:29.366Z,10.77
2018-12-15T02:07:57.450Z,10.27
2018-12-15T02:10:24.947Z,9.90
2018-12-15T02:12:53.166Z,11.13
2018-12-15T02:15:21.003Z,10.73
2018-12-15T02:17:49.138Z,10.83
2018-12-15T02:20:17.574Z,10.07
2018-12-15T02:22:45.050Z,8.43
2018-12-15T02:25:12.770Z,8.50
2018-12-15T02:27:41.494Z,9.07
2018-12-15T02:30:08.999Z,8.43
2018-12-15T02:32:36.465Z,9.47
2018-12-15T02:35:05.054Z,8.73
2018-12-15T02:37:35.538Z,9.53
2018-12-15T02:40:05.500Z,11.30
2018-12-15T02:42:33.687Z,12.57
2018-12-15T02:45:01.291Z,10.80
2018-12-15T02:47:29.130Z,10.33
2018-12-15T02:49:57.398Z,9.37
2018-12-15T02:52:24.990Z,10.70
2018-12-15T02:54:53.867Z,11.87
2018-12-15T02:57:21.941Z,9.80
2018-12-15T02:59:49.421Z,9.53
2018-12-15T03:02:17.488Z,12.23
2018-12-15T03:04:47.004Z,10.80
2018-12-15T03:07:14.492Z,9.77
2018-12-15T03:09:42.654Z,11.30
2018-12-15T03:12:10.127Z,10.43
2018-12-15T03:14:37.595Z,9.53
2018-12-15T03:17:06.386Z,9.30
2018-12-15T03:19:34.410Z,10.20
2018-12-15T03:22:02.002Z,10.17
2018-12-15T03:24:29.578Z,11.40
2018-12-15T03:26:57.797Z,11.90
2018-12-15T03:29:25.286Z,12.20
2018-12-15T03:31:52.763Z,13.30
2018-12-15T03:34:21.064Z,13.40
2018-12-15T03:36:48.541Z,14.80
2018-12-15T03:39:16.358Z,13.20
2018-12-15T03:41:44.653Z,12.80
2018-12-15T03:44:12.850Z,10.03
2018-12-15T03:46:40.334Z,11.27
2018-12-15T03:49:08.557Z,12.20
2018-12-15T03:51:36.045Z,9.63
2018-12-15T03:54:05.043Z,12.27
2018-12-15T03:56:33.318Z,9.77
2018-12-15T03:59:01.302Z,11.37
2018-12-15T04:01:29.469Z,11.33
2018-12-15T04:03:56.937Z,10.80
2018-12-15T04:06:24.411Z,10.70
2018-12-15T04:08:52.583Z,12.53
2018-12-15T04:11:20.048Z,10.70
2018-12-15T04:13:47.532Z,10.30
2018-12-15T04:16:15.093Z,10.20
2018-12-15T04:18:42.584Z,10.60
2018-12-15T04:21:10.432Z,9.73
2018-12-15T04:23:38.706Z,10.73
2018-12-15T04:26:06.229Z,12.17
2018-12-15T04:28:34.100Z,10.07
2018-12-15T04:31:02.395Z,12.00
2018-12-15T04:33:29.885Z,12.70
2018-12-15T04:35:58.694Z,10.87
2018-12-15T04:38:26.262Z,12.03
2018-12-15T04:40:54.608Z,11.40
2018-12-15T04:43:23.039Z,12.37
2018-12-15T04:45:50.592Z,11.27
2018-12-15T04:48:19.056Z,12.90
2018-12-15T04:50:46.545Z,12.37
2018-12-15T04:53:14.776Z,11.10
2018-12-15T04:55:42.847Z,10.00
2018-12-15T04:58:11.534Z,10.50
2018-12-15T05:00:39.017Z,9.80
2018-12-15T05:03:07.047Z,11.90
2018-12-15T05:05:35.157Z,12.33
2018-12-15T05:08:03.558Z,10.43
2018-12-15T05:10:31.024Z,12.33
2018-12-15T05:12:59.085Z,10.63
2018-12-15T05:15:26.695Z,11.10
2018-12-15T05:17:54.255Z,13.50
2018-12-15T05:20:23.098Z,13.30
2018-12-15T05:22:51.668Z,14.30
2018-12-15T05:25:19.347Z,14.03
2018-12-15T05:27:47.850Z,14.57
2018-12-15T05:30:15.341Z,15.47
2018-12-15T05:32:42.846Z,15.93
2018-12-15T05:35:11.046Z,13.00
2018-12-15T05:37:38.638Z,15.13
2018-12-15T05:40:07.341Z,16.57
2018-12-15T05:42:35.585Z,17.30
2018-12-15T05:45:04.665Z,12.83
2018-12-15T05:47:32.755Z,13.00
2018-12-15T05:50:01.043Z,15.20
2018-12-15T05:52:29.093Z,13.60
2018-12-15T05:54:57.424Z,11.83
2018-12-15T05:57:25.888Z,12.30
2018-12-15T05:59:53.421Z,12.30
2018-12-15T06:02:22.967Z,13.90
2018-12-15T06:04:51.952Z,14.13
2018-12-15T06:07:19.400Z,12.70
2018-12-15T06:09:47.518Z,12.30
2018-12-15T06:12:15.102Z,11.07
2018-12-15T06:14:42.593Z,12.83
2018-12-15T06:17:10.131Z,13.10
2018-12-15T06:19:38.545Z,11.80
2018-12-15T06:22:06.138Z,11.03
2018-12-15T06:24:34.230Z,10.77
2018-12-15T06:27:02.798Z,11.07
2018-12-15T06:29:30.326Z,13.50
2018-12-15T06:31:57.789Z,10.80
2018-12-15T06:34:26.103Z,11.63
2018-12-15T06:36:54.398Z,10.77
2018-12-15T06:39:22.285Z,9.57
2018-12-15T06:41:50.246Z,9.63
2018-12-15T06:44:17.809Z,10.63
2018-12-15T06:46:46.590Z,13.90
2018-12-15T06:49:14.637Z,15.47
2018-12-15T06:51:42.665Z,12.63
2018-12-15T06:54:10.726Z,15.23
2018-12-15T06:56:38.199Z,14.17
2018-12-15T06:59:06.357Z,16.13
2018-12-15T07:01:34.403Z,17.53
2018-12-15T07:04:01.902Z,15.53
2018-12-15T07:06:29.484Z,16.40
2018-12-15T07:08:58.105Z,15.80
2018-12-15T07:11:25.579Z,15.60
2018-12-15T07:13:53.067Z,15.20
2018-12-15T07:16:20.621Z,15.20
2018-12-15T07:18:48.212Z,15.80
2018-12-15T07:21:15.830Z,16.10
2018-12-15T07:23:43.953Z,15.60
2018-12-15T07:26:11.437Z,16.27
2018-12-15T07:28:39.675Z,16.30
2018-12-15T07:31:07.142Z,15.70
2018-12-15T07:33:34.607Z,14.23
2018-12-15T07:36:03.199Z,15.00
2018-12-15T07:38:30.650Z,15.70
2018-12-15T07:40:58.949Z,15.90
2018-12-15T07:43:26.516Z,16.73
2018-12-15T07:45:54.886Z,16.60
2018-12-15T07:48:22.988Z,17.47
2018-12-15T07:50:50.556Z,15.90
2018-12-15T07:53:18.812Z,15.17
2018-12-15T07:55:46.939Z,15.57
2018-12-15T07:58:15.893Z,14.57
2018-12-15T08:00:43.350Z,15.00
2018-12-15T08:03:10.855Z,14.30
2018-12-15T08:05:39.016Z,13.03
2018-12-15T08:08:07.579Z,14.07
2018-12-15T08:10:40.823Z,15.63
2018-12-15T08:13:10.331Z,15.00
2018-12-15T08:15:37.825Z,17.20
2018-12-15T08:18:05.337Z,17.60
2018-12-15T08:20:33.587Z,17.53
2018-12-15T08:23:01.058Z,18.80
2018-12-15T08:25:29.133Z,17.80
2018-12-15T08:27:57.069Z,17.00
2018-12-15T08:30:24.549Z,20.07
2018-12-15T08:32:52.745Z,17.80
2018-12-15T08:35:21.035Z,16.30
2018-12-15T08:37:48.509Z,18.60
2018-12-15T08:40:16.005Z,17.37
2018-12-15T08:42:44.412Z,19.50
2018-12-15T08:45:12.181Z,19.10
2018-12-15T08:47:40.667Z,18.77
2018-12-15T08:50:08.390Z,21.57
2018-12-15T08:52:35.994Z,24.40
2018-12-15T08:55:05.235Z,21.27
2018-12-15T08:57:33.874Z,20.57
2018-12-15T09:00:01.363Z,19.90
2018-12-15T09:02:28.877Z,18.13
2018-12-15T09:04:56.437Z,19.33
2018-12-15T09:07:23.911Z,19.33
2018-12-15T09:09:52.220Z,18.17
2018-12-15T09:12:19.812Z,19.90
2018-12-15T09:14:47.916Z,16.13
2018-12-15T09:17:15.458Z,17.83
2018-12-15T09:19:43.742Z,18.50
2018-12-15T09:22:11.716Z,18.00
2018-12-15T09:24:39.993Z,17.13
2018-12-15T09:27:08.138Z,17.30
2018-12-15T09:29:36.450Z,17.00
2018-12-15T09:32:04.224Z,16.20
2018-12-15T09:34:33.031Z,17.00
2018-12-15T09:37:01.114Z,16.80
2018-12-15T09:39:29.471Z,17.50
2018-12-15T09:41:57.853Z,18.30
2018-12-15T09:44:26.037Z,18.87
2018-12-15T09:46:54.538Z,19.93
2018-12-15T09:49:22.805Z,17.13
2018-12-15T09:51:50.837Z,18.10
2018-12-15T09:54:19.438Z,16.30
2018-12-15T09:56:46.937Z,17.10
2018-12-15T09:59:15.308Z,15.97
2018-12-15T10:01:42.919Z,17.57
2018-12-15T10:04:10.521Z,18.87
2018-12-15T10:06:38.300Z,18.13
2018-12-15T10:09:07.670Z,18.17
2018-12-15T10:11:36.025Z,16.80
2018-12-15T10:14:04.195Z,18.40
2018-12-15T10:16:32.353Z,19.00
2018-12-15T10:19:00.637Z,19.23
2018-12-15T10:21:28.673Z,19.30
2018-12-15T10:23:56.205Z,18.43
2018-12-15T10:26:23.973Z,17.43
2018-12-15T10:28:52.654Z,17.17
2018-12-15T10:31:26.111Z,19.40
2018-12-15T10:33:54.411Z,17.33
2018-12-15T10:36:23.241Z,18.77
2018-12-15T10:38:51.249Z,17.43
2018-12-15T10:41:21.080Z,17.67
2018-12-15T10:43:49.346Z,19.03
2018-12-15T10:46:16.821Z,18.20
2018-12-15T10:48:45.468Z,19.00
2018-12-15T10:51:13.358Z,18.53
2018-12-15T10:53:41.797Z,17.23
2018-12-15T10:56:09.282Z,16.87
2018-12-15T10:58:37.882Z,18.50
2018-12-15T11:01:11.211Z,16.90
2018-12-15T11:03:38.745Z,18.20
2018-12-15T11:06:06.244Z,17.13
2018-12-15T11:08:34.749Z,17.57
2018-12-15T11:11:02.257Z,20.13
2018-12-15T11:13:31.634Z,21.17
2018-12-15T11:15:59.118Z,19.87
2018-12-15T11:18:26.610Z,21.50
2018-12-15T11:20:54.717Z,18.20
2018-12-15T11:23:22.304Z,17.70
2018-12-15T11:25:50.469Z,19.40
2018-12-15T11:28:18.540Z,17.37
2018-12-15T11:30:46.078Z,19.43
2018-12-15T11:33:14.381Z,19.60
2018-12-15T11:35:42.362Z,18.17
2018-12-15T11:38:10.425Z,22.00
2018-12-15T11:40:38.557Z,22.90
2018-12-15T11:43:06.789Z,20.90
2018-12-15T11:45:34.580Z,20.27
2018-12-15T11:48:02.853Z,20.50
2018-12-15T11:50:31.034Z,21.00
2018-12-15T11:52:59.368Z,20.17
2018-12-15T11:55:27.014Z,17.93
2018-12-15T11:57:54.891Z,20.80
2018-12-15T12:00:22.390Z,21.10
2018-12-15T12:02:49.923Z,18.60
2018-12-15T12:05:17.442Z,17.47
2018-12-15T12:07:45.093Z,19.60
2018-12-15T12:10:13.695Z,18.60
2018-12-15T12:12:41.819Z,21.07
2018-12-15T12:15:09.491Z,18.17
2018-12-15T12:17:38.605Z,17.10
2018-12-15T12:20:06.990Z,16.60
2018-12-15T12:22:35.294Z,20.70
2018-12-15T12:25:03.549Z,18.97
2018-12-15T12:27:32.512Z,19.07
2018-12-15T12:29:59.998Z,18.73
2018-12-15T12:32:28.623Z,19.73
2018-12-15T12:34:57.722Z,19.43
2018-12-15T12:37:25.811Z,19.10
2018-12-15T12:39:53.309Z,19.83
2018-12-15T12:42:21.542Z,19.30
2018-12-15T12:44:49.730Z,16.23
2018-12-15T12:47:18.186Z,19.03
2018-12-15T12:49:45.693Z,14.37
2018-12-15T12:52:13.506Z,14.40
2018-12-15T12:54:41.823Z,12.33
2018-12-15T12:57:09.322Z,12.07
2018-12-15T12:59:37.874Z,12.60
2018-12-15T13:02:05.485Z,13.07
2018-12-15T13:04:32.993Z,17.20
2018-12-15T13:07:00.674Z,17.40
2018-12-15T13:09:28.598Z,17.97
2018-12-15T13:11:56.621Z,19.23
2018-12-15T13:14:24.419Z,19.30
2018-12-15T13:16:52.043Z,22.70
2018-12-15T13:19:19.556Z,26.33
2018-12-15T13:21:47.733Z,23.50
2018-12-15T13:24:15.238Z,20.23
2018-12-15T13:28:13.043Z,17.03
2018-12-15T13:30:42.085Z,17.00
2018-12-15T13:33:21.984Z,20.70
2018-12-15T13:35:49.708Z,19.30
2018-12-15T13:38:18.774Z,19.70
2018-12-15T13:40:47.702Z,20.57
2018-12-15T13:43:15.794Z,18.60
2018-12-15T13:45:44.295Z,20.13
2018-12-15T13:48:13.163Z,19.23
2018-12-15T13:50:41.426Z,21.70
2018-12-15T13:53:09.374Z,19.63
2018-12-15T13:55:38.318Z,15.90
2018-12-15T13:58:06.884Z,15.47
2018-12-15T14:00:34.392Z,17.53
2018-12-15T14:03:01.884Z,18.53
2018-12-15T14:05:30.106Z,19.50
2018-12-15T14:07:58.902Z,18.47
2018-12-15T14:10:28.282Z,20.80
2018-12-15T14:12:57.389Z,20.30
2018-12-15T14:15:24.989Z,20.30
2018-12-15T14:17:53.200Z,22.30
2018-12-15T14:20:21.210Z,20.47
2018-12-15T14:22:50.124Z,21.40
2018-12-15T14:28:20.643Z,20.60
2018-12-15T14:30:48.812Z,22.07
2018-12-15T14:33:17.626Z,20.40
2018-12-15T14:35:46.159Z,20.30
2018-12-15T14:38:13.665Z,21.10
2018-12-15T14:40:41.743Z,21.10
2018-12-15T14:43:10.026Z,19.37
2018-12-15T14:45:37.602Z,20.07
2018-12-15T14:48:06.685Z,20.30
2018-12-15T14:50:35.693Z,18.43
2018-12-15T14:53:04.294Z,20.73
2018-12-15T14:55:32.864Z,19.80
2018-12-15T14:58:00.447Z,20.23
2018-12-15T15:00:28.589Z,19.43
2018-12-15T15:02:56.587Z,21.20
2018-12-15T15:05:25.058Z,19.30
2018-12-15T15:07:53.010Z,16.83
2018-12-15T15:10:21.318Z,19.43
2018-12-15T15:12:49.906Z,17.53
2018-12-15T15:15:18.388Z,17.03
2018-12-15T15:17:45.983Z,19.50
2018-12-15T15:20:14.419Z,20.50
2018-12-15T15:22:41.905Z,19.53
2018-12-15T15:25:10.647Z,16.30
2018-12-15T15:27:39.169Z,16.37
2018-12-15T15:30:08.354Z,17.37
2018-12-15T15:32:35.833Z,16.97
2018-12-15T15:35:05.480Z,17.30
2018-12-15T15:37:32.986Z,19.57
2018-12-15T15:40:01.367Z,20.37
2018-12-15T15:42:29.449Z,17.67
2018-12-15T15:44:57.434Z,20.43
2018-12-15T15:47:25.415Z,15.90
2018-12-15T15:49:52.893Z,20.77
2018-12-15T15:52:20.413Z,20.40
2018-12-15T15:54:48.725Z,20.00
2018-12-15T15:57:17.205Z,20.07
2018-12-15T15:59:44.685Z,17.20
2018-12-15T16:02:12.179Z,17.90
2018-12-15T16:04:40.717Z,16.60
2018-12-15T16:07:08.205Z,15.67
2018-12-15T16:09:36.313Z,17.83
2018-12-15T16:12:04.269Z,20.57
2018-12-15T16:14:32.389Z,17.77
2018-12-15T16:17:00.393Z,17.23
2018-12-15T16:19:27.905Z,18.20
2018-12-15T16:21:56.137Z,18.37
2018-12-15T16:24:24.338Z,16.87
2018-12-15T16:26:52.479Z,20.07
2018-12-15T16:29:20.783Z,20.77
2018-12-15T16:31:50.694Z,21.37
2018-12-15T16:34:18.172Z,18.90
2018-12-15T16:36:46.202Z,20.40
2018-12-15T16:39:13.821Z,18.60
2018-12-15T16:41:42.314Z,16.00
2018-12-15T16:44:10.082Z,18.93
2018-12-15T16:46:37.606Z,21.33
2018-12-15T16:49:06.231Z,22.67
2018-12-15T16:51:34.647Z,21.80
2018-12-15T16:54:03.570Z,21.93
2018-12-15T16:56:31.095Z,20.33
2018-12-15T16:58:58.597Z,16.80
2018-12-15T17:01:26.170Z,19.80
2018-12-15T17:03:53.650Z,23.07
2018-12-15T17:06:21.274Z,24.00
2018-12-15T17:08:49.420Z,20.23
2018-12-15T17:11:16.988Z,25.40
2018-12-15T17:13:45.231Z,27.90
2018-12-15T17:16:13.770Z,25.23
2018-12-15T17:18:42.450Z,20.23
2018-12-15T17:21:10.317Z,19.30
2018-12-15T17:23:39.197Z,18.63
2018-12-15T17:26:07.964Z,17.87
2018-12-15T17:28:35.941Z,20.10
2018-12-15T17:31:03.434Z,20.67
2018-12-15T17:33:30.948Z,20.30
2018-12-15T17:35:58.845Z,17.70
2018-12-15T17:38:27.044Z,16.30
2018-12-15T17:40:55.621Z,18.17
2018-12-15T17:43:23.155Z,16.80
2018-12-15T17:45:50.637Z,19.20
2018-12-15T17:48:18.652Z,18.93
2018-12-15T17:50:46.138Z,18.50
2018-12-15T17:53:14.201Z,18.37
2018-12-15T17:55:43.054Z,18.40
2018-12-15T17:58:14.684Z,19.90
2018-12-15T18:00:40.633Z,18.20
2018-12-15T18:03:08.327Z,19.33
2018-12-15T18:05:35.827Z,22.93
2018-12-15T18:08:03.470Z,23.87
2018-12-15T18:10:31.501Z,20.80
2018-12-15T18:12:59.666Z,26.90
2018-12-15T18:15:28.665Z,24.90
2018-12-15T18:17:57.586Z,26.87
2018-12-15T18:20:25.949Z,23.70
2018-12-15T18:22:54.032Z,22.30
2018-12-15T18:25:22.307Z,19.40
2018-12-15T18:27:50.882Z,22.23
2018-12-15T18:30:18.482Z,19.13
2018-12-15T18:32:46.548Z,18.37
2018-12-15T18:35:14.715Z,24.40
2018-12-15T18:37:42.181Z,25.03
2018-12-15T18:40:09.830Z,21.53
2018-12-15T18:42:37.926Z,19.13
2018-12-15T18:45:06.766Z,21.17
2018-12-15T18:47:34.786Z,20.90
2018-12-15T18:50:03.006Z,17.47
2018-12-15T18:52:31.350Z,20.53
2018-12-15T18:54:59.335Z,20.13
2018-12-15T18:57:26.962Z,30.40
2018-12-15T18:59:55.248Z,26.70
2018-12-15T19:02:23.645Z,20.83
2018-12-15T19:04:51.138Z,17.47
2018-12-15T19:07:18.684Z,17.97
2018-12-15T19:09:46.981Z,19.87
2018-12-15T19:12:16.119Z,21.40
2018-12-15T19:14:47.073Z,22.43
2018-12-15T19:17:16.684Z,19.77
2018-12-15T19:19:44.149Z,16.47
2018-12-15T19:22:12.382Z,15.00
2018-12-15T19:24:40.868Z,16.30
2018-12-15T19:27:09.949Z,22.20
2018-12-15T19:29:40.346Z,20.13
2018-12-15T19:32:07.965Z,18.13
2018-12-15T19:34:36.290Z,14.43
2018-12-15T19:37:04.261Z,17.00
2018-12-15T19:39:32.325Z,16.73
2018-12-15T19:42:00.450Z,15.07
2018-12-15T19:44:28.704Z,15.53
2018-12-15T19:46:56.919Z,13.67
2018-12-15T19:49:24.514Z,13.17
2018-12-15T19:51:52.077Z,14.07
2018-12-15T19:54:20.155Z,13.23
2018-12-15T19:56:47.750Z,10.73
2018-12-15T19:59:15.389Z,11.40
2018-12-15T20:01:43.403Z,10.70
2018-12-15T20:04:11.927Z,13.00
2018-12-15T20:06:39.538Z,12.17
2018-12-15T20:09:09.375Z,10.77
2018-12-15T20:11:38.147Z,10.60
2018-12-15T20:14:06.006Z,12.20
2018-12-15T20:16:33.590Z,12.20
2018-12-15T20:19:01.463Z,12.83
2018-12-15T20:21:35.834Z,13.67
2018-12-15T20:24:00.122Z,14.20
2018-12-15T20:26:27.623Z,13.83
2018-12-15T20:28:55.953Z,17.93
2018-12-15T20:31:23.562Z,14.80
2018-12-15T20:33:52.119Z,13.03
2018-12-15T20:36:20.144Z,10.97
2018-12-15T20:38:47.661Z,10.90
2018-12-15T20:41:17.060Z,10.77
2018-12-15T20:43:45.213Z,12.50
2018-12-15T20:46:13.533Z,10.47
2018-12-15T20:48:41.690Z,12.27
2018-12-15T20:51:10.874Z,10.50
2018-12-15T20:53:39.385Z,9.57
2018-12-15T20:56:06.894Z,9.83
2018-12-15T20:58:34.490Z,9.27
2018-12-15T21:01:02.059Z,9.07
2018-12-15T21:03:29.540Z,8.90
2018-12-15T21:05:57.208Z,9.20
2018-12-15T21:08:24.755Z,12.13
2018-12-15T21:10:53.243Z,10.93
2018-12-15T21:13:21.598Z,12.07
2018-12-15T21:15:53.070Z,9.23
2018-12-15T21:18:20.542Z,8.33
2018-12-15T21:20:48.029Z,9.83
2018-12-15T21:23:15.573Z,8.33
2018-12-15T21:25:44.378Z,7.65
2018-12-15T21:28:12.542Z,10.32
2018-12-15T21:30:40.215Z,10.60
2018-12-15T21:33:08.199Z,12.30
2018-12-15T21:35:36.246Z,8.60
2018-12-15T21:38:04.675Z,10.77
2018-12-15T21:40:32.602Z,11.97
2018-12-15T21:43:00.851Z,10.70
2018-12-15T21:45:28.365Z,8.90
2018-12-15T21:47:57.792Z,7.85
2018-12-15T21:50:25.670Z,9.93
2018-12-15T21:52:54.450Z,10.10
2018-12-15T21:55:21.930Z,9.78
2018-12-15T21:57:50.162Z,9.80
2018-12-15T22:00:17.646Z,9.83
2018-12-15T22:02:45.206Z,10.90
2018-12-15T22:05:12.774Z,9.80
2018-12-15T22:07:41.339Z,9.18
2018-12-15T22:10:09.524Z,10.50
2018-12-15T22:12:38.754Z,11.18
2018-12-15T22:15:07.523Z,11.78
2018-12-15T22:17:35.019Z,9.83
2018-12-15T22:20:03.706Z,13.62
2018-12-15T22:22:31.870Z,12.78
2018-12-15T22:25:00.425Z,13.38
2018-12-15T22:27:28.360Z,10.93
2018-12-15T22:29:56.250Z,8.80
2018-12-15T22:32:24.297Z,7.40
2018-12-15T22:34:51.825Z,7.87
2018-12-15T22:37:20.633Z,6.10
2018-12-15T22:39:48.115Z,6.00
2018-12-15T22:42:16.347Z,6.15
2018-12-15T22:44:44.739Z,5.10
2018-12-15T22:47:12.809Z,5.45
2018-12-15T22:49:41.090Z,6.10
2018-12-15T22:52:09.900Z,6.20
2018-12-15T22:54:38.301Z,6.05
2018-12-15T22:57:05.800Z,6.35
2018-12-15T22:59:33.372Z,6.50
2018-12-15T23:02:01.066Z,5.62
2018-12-15T23:04:28.557Z,4.90
2018-12-15T23:06:56.597Z,7.07
2018-12-15T23:09:25.318Z,6.22
2018-12-15T23:11:53.581Z,7.58
2018-12-15T23:14:21.757Z,6.95
2018-12-15T23:16:50.651Z,6.58
2018-12-15T23:19:18.141Z,6.83
2018-12-15T23:21:45.605Z,6.50
2018-12-15T23:24:14.045Z,6.50
2018-12-15T23:26:43.158Z,7.08
2018-12-15T23:29:11.445Z,6.15
2018-12-15T23:31:38.926Z,7.40
2018-12-15T23:34:07.078Z,5.95
2018-12-15T23:36:34.564Z,6.20
2018-12-15T23:39:02.921Z,6.20
2018-12-15T23:41:30.908Z,7.10
2018-12-15T23:43:59.302Z,6.05
2018-12-15T23:46:27.637Z,6.25
2018-12-15T23:48:55.810Z,6.17
2018-12-15T23:51:23.332Z,6.10
2018-12-15T23:53:51.348Z,5.90
2018-12-15T23:56:18.823Z,5.20
2018-12-15T23:58:46.427Z,5.87
